KCSV/CSV METAR and TAF weather

Enter ICAO airport designator
Station Type Date Time Source
KCSV METAR 2018/12/12 15:53 UTC NOAA

KCSV 121553Z AUTO 21007KT 10SM CLR 04/M05 A3015 RMK AO2 SLP219 T00441050


Station Type Date Time Source
KCSV Decoded METAR 2018/12/12 15:53 UTC NOAA

CROSSVILLE MEMORIAL AIRPORT , TN, United States (KCSV) 35-57N 85-05W 570M
Dec 12, 2018 - 10:53 AM EST / 2018.12.12 1553 UTC
Wind: from the SSW (210 degrees) at 8 MPH (7 KT):0
Visibility: 10 mile(s):0
Sky conditions: clear
Temperature: 39.9 F (4.4 C)
Dew Point: 23.0 F (-5.0 C)
Relative Humidity: 50%
Pressure (altimeter): 30.15 in. Hg (1020 hPa)
ob: KCSV 121553Z AUTO 21007KT 10SM CLR 04/M05 A3015 RMK AO2 SLP219 T00441050
cycle: 16

Station Type Date Time Source
KCSV TAF 2018/12/12 12:22 UTC NOAA

TAF KCSV 121120Z 1212/1312 19003KT P6SM BKN250
FM121600 21009G16KT P6SM BKN250
FM122200 20007KT P6SM OVC040


Example: see airport list